createdAt,value
2023-05-25T00:02:05.282Z,16.13
2023-05-25T00:04:52.276Z,16.75
2023-05-25T00:07:40.227Z,16.13
2023-05-25T00:10:26.037Z,15.60
2023-05-25T00:13:12.411Z,15.55
2023-05-25T00:15:59.441Z,15.50
2023-05-25T00:18:48.569Z,15.55
2023-05-25T00:21:38.634Z,15.73
2023-05-25T00:24:24.725Z,17.80
2023-05-25T00:27:10.747Z,16.00
2023-05-25T00:29:57.789Z,15.90
2023-05-25T00:32:43.846Z,15.93
2023-05-25T00:35:30.670Z,15.95
2023-05-25T00:38:20.078Z,15.52
2023-05-25T00:41:07.115Z,14.70
2023-05-25T00:43:53.298Z,15.93
2023-05-25T00:46:39.964Z,15.05
2023-05-25T00:49:26.168Z,15.38
2023-05-25T00:52:16.394Z,16.10
2023-05-25T00:55:04.230Z,15.90
2023-05-25T00:57:52.672Z,15.43
2023-05-25T01:00:42.812Z,16.27
2023-05-25T01:03:36.642Z,15.17
2023-05-25T01:06:23.694Z,15.55
2023-05-25T01:09:12.721Z,14.90
2023-05-25T01:12:01.419Z,14.77
2023-05-25T01:14:49.833Z,15.50
2023-05-25T01:17:38.301Z,18.02
2023-05-25T01:20:28.468Z,15.95
2023-05-25T01:23:17.702Z,16.73
2023-05-25T01:26:09.599Z,16.48
2023-05-25T01:31:43.557Z,14.18
2023-05-25T01:34:31.258Z,15.95
2023-05-25T01:37:20.862Z,14.95
2023-05-25T01:40:08.326Z,14.52
2023-05-25T01:42:54.517Z,16.42
2023-05-25T01:45:40.904Z,16.00
2023-05-25T01:48:41.194Z,16.50
2023-05-25T01:51:36.831Z,17.95
2023-05-25T01:54:39.433Z,16.90
2023-05-25T01:57:27.698Z,16.00
2023-05-25T02:00:14.697Z,16.48
2023-05-25T02:03:01.968Z,17.85
2023-05-25T02:05:47.948Z,19.08
2023-05-25T02:08:33.643Z,18.75
2023-05-25T02:11:20.578Z,17.15
2023-05-25T02:14:06.772Z,16.20
2023-05-25T02:16:53.000Z,17.08
2023-05-25T02:19:39.621Z,16.73
2023-05-25T02:22:26.021Z,16.52
2023-05-25T02:25:13.462Z,16.83
2023-05-25T02:28:00.494Z,15.70
2023-05-25T02:30:46.710Z,17.42
2023-05-25T02:33:33.161Z,16.88
2023-05-25T02:36:20.390Z,16.88
2023-05-25T02:39:07.506Z,16.35
2023-05-25T02:41:53.855Z,15.77
2023-05-25T02:44:40.852Z,16.35
2023-05-25T02:47:27.028Z,16.65
2023-05-25T02:50:14.218Z,16.38
2023-05-25T02:53:04.771Z,15.82
2023-05-25T02:55:51.071Z,16.13
2023-05-25T02:58:42.750Z,16.38
2023-05-25T03:01:35.050Z,17.00
2023-05-25T03:04:22.107Z,15.68
2023-05-25T03:07:08.198Z,17.88
2023-05-25T03:09:54.887Z,17.48
2023-05-25T03:12:42.075Z,16.73
2023-05-25T03:15:28.754Z,17.13
2023-05-25T03:18:15.183Z,14.68
2023-05-25T03:21:02.978Z,17.08
2023-05-25T03:23:50.666Z,15.88
2023-05-25T03:26:37.070Z,15.35
2023-05-25T03:29:27.004Z,14.43
2023-05-25T03:32:13.752Z,17.02
2023-05-25T03:34:59.785Z,17.88
2023-05-25T03:37:46.986Z,16.52
2023-05-25T03:40:35.635Z,16.35
2023-05-25T03:43:21.901Z,15.35
2023-05-25T03:46:10.326Z,15.95
2023-05-25T03:48:56.670Z,16.05
2023-05-25T03:51:43.173Z,17.10
2023-05-25T03:54:32.015Z,16.60
2023-05-25T03:57:18.166Z,15.77
2023-05-25T04:00:05.810Z,17.30
2023-05-25T04:02:59.091Z,16.90
2023-05-25T04:05:48.116Z,18.05
2023-05-25T04:08:34.882Z,16.27
2023-05-25T04:11:23.109Z,16.60
2023-05-25T04:14:08.846Z,16.40
2023-05-25T04:16:59.415Z,17.45
2023-05-25T04:19:45.563Z,19.15
2023-05-25T04:22:33.872Z,17.02
2023-05-25T04:25:20.311Z,18.25
2023-05-25T04:28:08.917Z,16.88
2023-05-25T04:31:15.621Z,17.73
2023-05-25T04:34:10.008Z,17.38
2023-05-25T04:37:05.589Z,17.13
2023-05-25T04:39:53.084Z,17.88
2023-05-25T04:42:40.763Z,16.67
2023-05-25T04:45:30.058Z,17.63
2023-05-25T04:48:16.591Z,17.23
2023-05-25T04:51:04.944Z,18.70
2023-05-25T04:53:53.396Z,17.93
2023-05-25T04:56:40.316Z,19.30
2023-05-25T04:59:26.417Z,18.42
2023-05-25T05:02:18.740Z,19.02
2023-05-25T05:05:05.227Z,18.20
2023-05-25T05:07:52.283Z,19.35
2023-05-25T05:10:38.618Z,20.48
2023-05-25T05:13:26.497Z,19.40
2023-05-25T05:16:13.491Z,19.77
2023-05-25T05:19:00.814Z,18.23
2023-05-25T05:21:47.166Z,19.30
2023-05-25T05:24:35.773Z,20.48
2023-05-25T05:27:22.876Z,19.50
2023-05-25T05:30:17.062Z,19.40
2023-05-25T05:33:03.463Z,20.63
2023-05-25T05:35:58.035Z,20.58
2023-05-25T05:38:49.841Z,17.85
2023-05-25T05:41:36.329Z,19.77
2023-05-25T05:44:25.264Z,22.70
2023-05-25T05:47:13.478Z,18.13
2023-05-25T05:49:59.668Z,24.30
2023-05-25T05:52:46.019Z,19.58
2023-05-25T05:55:33.170Z,20.20
2023-05-25T05:58:19.174Z,17.95
2023-05-25T06:01:06.850Z,19.17
2023-05-25T06:03:54.558Z,19.35
2023-05-25T06:06:42.233Z,18.00
2023-05-25T06:09:28.368Z,18.25
2023-05-25T06:12:19.060Z,18.33
2023-05-25T06:15:06.898Z,20.45
2023-05-25T06:17:56.388Z,18.52
2023-05-25T06:20:42.710Z,19.92
2023-05-25T06:23:29.451Z,19.40
2023-05-25T06:26:16.330Z,20.17
2023-05-25T06:29:02.766Z,19.92
2023-05-25T06:31:49.883Z,21.13
2023-05-25T06:34:39.035Z,18.55
2023-05-25T06:37:27.593Z,18.40
2023-05-25T06:40:16.232Z,17.85
2023-05-25T06:43:02.050Z,16.92
2023-05-25T06:46:10.546Z,15.48
2023-05-25T06:48:59.308Z,15.88
2023-05-25T06:51:45.556Z,16.17
2023-05-25T06:54:33.352Z,16.35
2023-05-25T06:57:19.425Z,16.63
2023-05-25T07:00:08.281Z,16.95
2023-05-25T07:02:54.746Z,16.05
2023-05-25T07:05:42.145Z,16.23
2023-05-25T07:08:28.074Z,16.30
2023-05-25T07:11:15.567Z,15.70
2023-05-25T07:14:01.826Z,15.65
2023-05-25T07:16:49.407Z,15.30
2023-05-25T07:19:35.584Z,16.88
2023-05-25T07:22:24.076Z,16.10
2023-05-25T07:25:09.940Z,14.27
2023-05-25T07:27:56.449Z,16.48
2023-05-25T07:30:42.354Z,16.05
2023-05-25T07:33:28.813Z,16.48
2023-05-25T07:36:15.110Z,15.57
2023-05-25T07:39:01.715Z,15.70
2023-05-25T07:41:47.708Z,15.75
2023-05-25T07:44:33.558Z,15.77
2023-05-25T07:47:20.684Z,16.17
2023-05-25T07:50:07.500Z,15.65
2023-05-25T07:52:54.761Z,15.65
2023-05-25T07:55:41.074Z,16.52
2023-05-25T07:58:27.281Z,16.40
2023-05-25T08:01:14.693Z,16.48
2023-05-25T08:04:01.185Z,15.07
2023-05-25T08:06:47.240Z,16.20
2023-05-25T08:09:33.363Z,15.52
2023-05-25T08:15:10.424Z,14.65
2023-05-25T08:17:56.901Z,16.40
2023-05-25T08:20:43.810Z,16.40
2023-05-25T08:23:29.879Z,16.00
2023-05-25T08:29:06.177Z,17.17
2023-05-25T08:31:53.038Z,17.60
2023-05-25T08:34:40.486Z,15.82
2023-05-25T08:37:26.584Z,17.23
2023-05-25T08:40:16.961Z,15.90
2023-05-25T08:43:03.017Z,15.87
2023-05-25T08:45:51.319Z,15.90
2023-05-25T08:48:42.268Z,16.23
2023-05-25T08:51:33.005Z,15.23
2023-05-25T08:57:13.924Z,15.23
2023-05-25T09:00:11.352Z,15.60
2023-05-25T09:03:18.352Z,15.07
2023-05-25T09:06:06.244Z,15.27
2023-05-25T09:08:52.164Z,14.02
2023-05-25T09:11:42.804Z,14.85
2023-05-25T09:14:31.154Z,14.68
2023-05-25T09:17:18.845Z,14.68
2023-05-25T09:20:05.327Z,15.77
2023-05-25T09:22:52.216Z,16.00
2023-05-25T09:25:38.830Z,16.10
2023-05-25T09:28:27.574Z,15.85
2023-05-25T09:31:17.880Z,14.63
2023-05-25T09:34:12.070Z,15.68
2023-05-25T09:36:59.195Z,15.52
2023-05-25T09:39:45.761Z,15.88
2023-05-25T09:42:34.427Z,15.52
2023-05-25T09:45:23.278Z,16.88
2023-05-25T09:48:09.946Z,14.38
2023-05-25T09:50:56.923Z,14.50
2023-05-25T09:53:43.437Z,15.18
2023-05-25T09:56:32.012Z,17.05
2023-05-25T09:59:18.628Z,15.10
2023-05-25T10:02:04.629Z,15.32
2023-05-25T10:04:51.182Z,17.15
2023-05-25T10:07:41.872Z,15.07
2023-05-25T10:10:29.316Z,16.00
2023-05-25T10:13:20.859Z,15.88
2023-05-25T10:16:13.294Z,15.82
2023-05-25T10:19:08.913Z,16.80
2023-05-25T10:22:18.458Z,16.15
2023-05-25T10:25:23.569Z,15.77
2023-05-25T10:28:29.019Z,15.48
2023-05-25T10:31:17.766Z,15.00
2023-05-25T10:34:04.160Z,14.80
2023-05-25T10:36:51.876Z,14.00
2023-05-25T10:39:39.992Z,15.70
2023-05-25T10:42:30.002Z,15.13
2023-05-25T10:45:16.910Z,15.43
2023-05-25T10:48:03.428Z,15.10
2023-05-25T10:50:50.935Z,14.85
2023-05-25T10:53:38.940Z,14.02
2023-05-25T10:56:26.149Z,15.00
2023-05-25T10:59:13.833Z,15.15
2023-05-25T11:02:07.667Z,14.73
2023-05-25T11:05:32.463Z,18.65
2023-05-25T11:08:23.592Z,14.65
2023-05-25T11:11:10.755Z,15.02
2023-05-25T11:13:56.812Z,14.55
2023-05-25T11:16:44.152Z,13.40
2023-05-25T11:19:43.737Z,16.08
2023-05-25T11:22:38.294Z,15.85
2023-05-25T11:25:42.453Z,14.25
2023-05-25T11:28:32.898Z,14.95
2023-05-25T11:31:37.855Z,15.38
2023-05-25T11:34:28.210Z,14.98
2023-05-25T11:37:21.340Z,14.30
2023-05-25T11:40:09.663Z,15.48
2023-05-25T11:42:57.975Z,14.20
2023-05-25T11:45:44.730Z,15.40
2023-05-25T11:48:30.698Z,15.60
2023-05-25T11:51:18.331Z,15.57
2023-05-25T11:54:04.479Z,16.35
2023-05-25T11:56:51.890Z,16.02
2023-05-25T11:59:39.616Z,15.00
2023-05-25T12:02:26.735Z,15.88
2023-05-25T12:05:14.517Z,19.67
2023-05-25T12:08:01.217Z,14.73
2023-05-25T12:10:52.162Z,15.63
2023-05-25T12:13:41.250Z,13.50
2023-05-25T12:16:27.698Z,15.65
2023-05-25T12:19:17.658Z,14.55
2023-05-25T12:22:04.369Z,14.83
2023-05-25T12:24:51.611Z,14.70
2023-05-25T12:27:38.490Z,14.75
2023-05-25T12:30:29.288Z,15.32
2023-05-25T12:33:16.721Z,14.80
2023-05-25T12:36:04.880Z,16.25
2023-05-25T12:39:00.164Z,24.63
2023-05-25T12:41:54.283Z,17.10
2023-05-25T12:44:42.733Z,15.57
2023-05-25T12:47:31.099Z,16.00
2023-05-25T12:50:17.960Z,15.32
2023-05-25T12:53:07.641Z,15.45
2023-05-25T12:56:04.460Z,15.40
2023-05-25T12:58:53.133Z,15.88
2023-05-25T13:01:40.800Z,16.67
2023-05-25T13:04:28.456Z,16.35
2023-05-25T13:07:16.015Z,15.65
2023-05-25T13:10:02.688Z,16.38
2023-05-25T13:12:49.896Z,16.52
2023-05-25T13:15:37.061Z,16.30
2023-05-25T13:18:23.061Z,15.35
2023-05-25T13:21:10.697Z,16.23
2023-05-25T13:23:57.125Z,16.92
2023-05-25T13:26:46.959Z,16.08
2023-05-25T13:29:34.562Z,15.70
2023-05-25T13:32:21.219Z,15.20
2023-05-25T13:35:08.055Z,15.82
2023-05-25T13:37:54.877Z,16.55
2023-05-25T13:40:41.074Z,15.23
2023-05-25T13:43:28.623Z,15.35
2023-05-25T13:46:25.822Z,15.43
2023-05-25T13:49:20.800Z,16.90
2023-05-25T13:52:07.174Z,15.10
2023-05-25T13:54:54.204Z,16.20
2023-05-25T13:57:40.389Z,15.30
2023-05-25T14:00:28.316Z,15.68
2023-05-25T14:03:18.097Z,16.55
2023-05-25T14:06:05.964Z,17.00
2023-05-25T14:08:52.244Z,15.63
2023-05-25T14:11:39.791Z,15.95
2023-05-25T14:14:32.143Z,15.73
2023-05-25T14:17:20.051Z,16.48
2023-05-25T14:20:07.316Z,16.08
2023-05-25T14:22:54.044Z,15.23
2023-05-25T14:25:40.016Z,16.70
2023-05-25T14:28:26.605Z,15.55
2023-05-25T14:31:13.894Z,14.48
2023-05-25T14:34:00.484Z,15.07
2023-05-25T14:36:46.745Z,14.40
2023-05-25T14:39:33.557Z,15.45
2023-05-25T14:42:20.025Z,16.00
2023-05-25T14:45:10.688Z,13.30
2023-05-25T14:48:11.872Z,13.55
2023-05-25T14:51:04.184Z,15.70
2023-05-25T14:53:54.530Z,16.85
2023-05-25T14:56:40.919Z,15.38
2023-05-25T14:59:27.546Z,14.23
2023-05-25T15:02:14.349Z,16.00
2023-05-25T15:05:00.517Z,14.50
2023-05-25T15:07:47.173Z,14.50
2023-05-25T15:10:38.972Z,15.80
2023-05-25T15:13:25.807Z,15.32
2023-05-25T15:16:14.009Z,18.77
2023-05-25T15:19:00.788Z,15.85
2023-05-25T15:21:46.811Z,15.68
2023-05-25T15:24:35.026Z,16.70
2023-05-25T15:27:21.549Z,16.95
2023-05-25T15:30:13.032Z,15.73
2023-05-25T15:32:58.998Z,15.80
2023-05-25T15:35:51.043Z,16.23
2023-05-25T15:38:37.113Z,15.93
2023-05-25T15:41:23.905Z,15.02
2023-05-25T15:44:12.853Z,14.18
2023-05-25T15:46:59.140Z,15.20
2023-05-25T15:49:45.228Z,16.00
2023-05-25T15:52:39.175Z,16.02
2023-05-25T15:55:26.199Z,16.92
2023-05-25T15:58:12.370Z,16.88
2023-05-25T16:00:58.878Z,17.95
2023-05-25T16:03:45.051Z,17.48
2023-05-25T16:06:31.844Z,16.38
2023-05-25T16:09:18.121Z,16.65
2023-05-25T16:12:04.976Z,16.33
2023-05-25T16:14:51.144Z,19.63
2023-05-25T16:17:38.251Z,15.55
2023-05-25T16:20:24.777Z,16.05
2023-05-25T16:23:11.090Z,14.70
2023-05-25T16:25:58.384Z,16.75
2023-05-25T16:28:44.612Z,15.18
2023-05-25T16:31:31.637Z,22.42
2023-05-25T16:34:17.748Z,17.20
2023-05-25T16:37:04.969Z,17.50
2023-05-25T16:39:51.154Z,16.33
2023-05-25T16:42:37.038Z,17.92
2023-05-25T16:45:23.048Z,16.42
2023-05-25T16:48:10.174Z,15.85
2023-05-25T16:50:57.476Z,15.48
2023-05-25T16:53:43.695Z,16.13
2023-05-25T16:56:30.469Z,16.05
2023-05-25T16:59:16.337Z,22.95
2023-05-25T17:02:03.396Z,16.75
2023-05-25T17:04:49.523Z,15.73
2023-05-25T17:07:36.382Z,14.80
2023-05-25T17:10:22.359Z,15.82
2023-05-25T17:13:09.350Z,17.27
2023-05-25T17:15:55.924Z,15.68
2023-05-25T17:18:42.851Z,15.48
2023-05-25T17:21:28.875Z,14.40
2023-05-25T17:24:14.665Z,15.00
2023-05-25T17:27:02.327Z,14.57
2023-05-25T17:29:48.223Z,17.85
2023-05-25T17:32:35.302Z,16.73
2023-05-25T17:35:21.415Z,14.45
2023-05-25T17:38:07.649Z,14.90
2023-05-25T17:40:53.677Z,15.05
2023-05-25T17:43:40.919Z,15.13
2023-05-25T17:46:31.482Z,16.65
2023-05-25T17:49:18.746Z,14.73
2023-05-25T17:52:05.061Z,14.07
2023-05-25T17:54:53.893Z,14.63
2023-05-25T17:57:40.223Z,14.68
2023-05-25T18:00:31.076Z,15.10
2023-05-25T18:03:21.282Z,14.35
2023-05-25T18:06:08.361Z,14.65
2023-05-25T18:08:55.681Z,15.30
2023-05-25T18:11:41.897Z,14.13
2023-05-25T18:14:27.941Z,14.05
2023-05-25T18:17:14.357Z,16.25
2023-05-25T18:20:01.377Z,15.20
2023-05-25T18:22:47.575Z,13.38
2023-05-25T18:25:34.080Z,13.98
2023-05-25T18:28:20.804Z,13.38
2023-05-25T18:31:09.004Z,13.85
2023-05-25T18:33:55.926Z,13.98
2023-05-25T18:36:41.950Z,13.05
2023-05-25T18:39:28.333Z,12.73
2023-05-25T18:42:14.288Z,13.15
2023-05-25T18:45:01.707Z,13.52
2023-05-25T18:47:48.470Z,12.32
2023-05-25T18:50:37.666Z,13.75
2023-05-25T18:53:23.765Z,14.20
2023-05-25T18:56:09.535Z,13.43
2023-05-25T18:58:57.434Z,12.88
2023-05-25T19:01:43.640Z,13.20
2023-05-25T19:04:30.506Z,12.60
2023-05-25T19:07:16.703Z,12.10
2023-05-25T19:10:02.786Z,12.80
2023-05-25T19:12:48.935Z,11.52
2023-05-25T19:15:36.630Z,12.70
2023-05-25T19:18:22.860Z,13.55
2023-05-25T19:21:10.075Z,13.02
2023-05-25T19:23:57.997Z,13.52
2023-05-25T19:26:46.731Z,12.50
2023-05-25T19:29:34.023Z,13.68
2023-05-25T19:32:19.936Z,12.73
2023-05-25T19:35:06.614Z,12.90
2023-05-25T19:37:53.770Z,12.40
2023-05-25T19:40:39.795Z,12.77
2023-05-25T19:43:25.828Z,12.43
2023-05-25T19:46:12.320Z,11.80
2023-05-25T19:48:58.939Z,12.90
2023-05-25T19:51:44.818Z,12.02
2023-05-25T19:54:31.900Z,12.48
2023-05-25T19:57:17.933Z,12.25
2023-05-25T20:00:09.213Z,12.68
2023-05-25T20:03:00.669Z,12.82
2023-05-25T20:05:47.915Z,13.20
2023-05-25T20:08:34.090Z,13.73
2023-05-25T20:11:20.929Z,13.85
2023-05-25T20:14:07.738Z,14.30
2023-05-25T20:16:57.118Z,13.23
2023-05-25T20:19:43.691Z,14.48
2023-05-25T20:22:30.490Z,12.55
2023-05-25T20:25:16.771Z,14.07
2023-05-25T20:28:03.565Z,12.25
2023-05-25T20:30:49.692Z,13.57
2023-05-25T20:33:35.846Z,14.27
2023-05-25T20:36:21.829Z,14.27
2023-05-25T20:39:09.804Z,15.48
2023-05-25T20:41:56.154Z,13.57
2023-05-25T20:44:42.546Z,14.07
2023-05-25T20:47:28.355Z,15.30
2023-05-25T20:50:16.327Z,15.02
2023-05-25T20:53:02.390Z,14.75
2023-05-25T20:55:48.798Z,14.68
2023-05-25T20:58:37.451Z,15.60
2023-05-25T21:01:23.795Z,14.52
2023-05-25T21:04:10.584Z,14.52
2023-05-25T21:06:57.729Z,13.65
2023-05-25T21:09:43.689Z,15.25
2023-05-25T21:12:30.653Z,15.05
2023-05-25T21:15:16.834Z,14.50
2023-05-25T21:18:06.244Z,14.23
2023-05-25T21:20:52.446Z,15.75
2023-05-25T21:23:39.157Z,15.15
2023-05-25T21:26:25.085Z,14.93
2023-05-25T21:29:11.797Z,14.70
2023-05-25T21:31:59.672Z,15.45
2023-05-25T21:34:47.172Z,15.60
2023-05-25T21:37:33.580Z,14.85
2023-05-25T21:40:21.076Z,15.05
2023-05-25T21:43:09.207Z,14.43
2023-05-25T21:45:56.274Z,15.05
2023-05-25T21:48:42.479Z,15.57
2023-05-25T21:51:33.617Z,14.18
2023-05-25T21:54:19.553Z,13.35
2023-05-25T21:57:06.081Z,15.15
2023-05-25T21:59:51.854Z,14.98
2023-05-25T22:02:39.015Z,14.63
2023-05-25T22:05:26.020Z,14.88
2023-05-25T22:08:13.513Z,13.85
2023-05-25T22:11:01.368Z,14.43
2023-05-25T22:13:48.433Z,14.23
2023-05-25T22:16:35.490Z,13.93
2023-05-25T22:19:22.567Z,14.30
2023-05-25T22:22:09.560Z,14.70
2023-05-25T22:24:57.180Z,14.50
2023-05-25T22:27:43.826Z,14.52
2023-05-25T22:30:32.705Z,15.00
2023-05-25T22:33:19.779Z,14.73
2023-05-25T22:36:08.413Z,14.90
2023-05-25T22:38:56.880Z,14.45
2023-05-25T22:41:46.509Z,14.90
2023-05-25T22:44:39.257Z,14.70
2023-05-25T22:47:27.015Z,15.18
2023-05-25T22:50:14.699Z,16.38
2023-05-25T22:53:03.998Z,16.25
2023-05-25T22:55:52.116Z,16.70
2023-05-25T22:58:40.589Z,14.95
2023-05-25T23:01:27.009Z,15.90
2023-05-25T23:04:14.980Z,15.73
2023-05-25T23:07:02.347Z,15.57
2023-05-25T23:09:49.152Z,14.40
2023-05-25T23:12:36.658Z,13.85
2023-05-25T23:15:25.568Z,14.90
2023-05-25T23:18:12.230Z,15.27
2023-05-25T23:20:59.883Z,15.23
2023-05-25T23:23:46.321Z,15.75
2023-05-25T23:26:33.945Z,16.15
2023-05-25T23:29:21.280Z,15.75
2023-05-25T23:32:08.710Z,15.43
2023-05-25T23:34:56.965Z,15.82
2023-05-25T23:37:45.113Z,15.25
2023-05-25T23:40:31.783Z,14.88
2023-05-25T23:43:19.597Z,14.77
2023-05-25T23:46:06.595Z,14.35
2023-05-25T23:48:54.481Z,14.75
2023-05-25T23:51:41.707Z,15.52
2023-05-25T23:54:29.641Z,15.25
2023-05-25T23:57:16.304Z,13.73
